Eagle Point, Vermont
Current Conditions -  °F | °C
As of 8:55 PM on Monday 24 Nov 2014 (Local Time) from KEFK Reporting Station
Scattered Clouds Scattered Clouds  
Wind Chill: 54°   Ceiling: Unl
Heat Index: 54°   Visibility: 10mi
Dew Point: 51°   Wind: 7mph
Humidity: 92%   Direction: 190°S
Pressure: 29.43"   Gusts: NA
Location:  44.9201°N, 72.2004°W
Report Text: KEFK 250155Z AUTO 19006KT 10SM SCT070 SCT095 12/11 A2943 RMK AO2 T01200108
Loading
Personal Weather Stations






























Interactive Weather Map New forecast layout! Learn more

10-Day Weather Forecast

Advertisements
Track Severe Weather on mobile